Strona główna
METAR-TAF:

METAR-TAF

Lotnisko :

Edgar County Airport

Paris, Illinois, Stany Zjednoczone

Szerokość geograficzna: 39-42-01N, Długość geograficzna: 087-40-11W, wysokość: 199 m

Aktualna obserwacja pogody

Raport powstał 19 minut temu, godzina 08:15 UTC
Cisza
Temperatura 21°C
Wilgotność 94%
Ciśnienie 1013 hPa
Widzialność: 11.3 km
Zachmurzenie całkowite na wysokości 700 ft

METAR: KPRG 280815Z AUTO 00000KT 7SM OVC007 21/20 A2990 RMK AO2 T02100203

czas: 03:34 (08:34 UTC)


TAF: brakujący

Obserwacja i prognoza pogody dla ponad 4000 lotnisk (raport METAR i TAF).

Dostępne stacje oznaczono żółtymi i czerwonymi punktami na mapie.

Najedź kursorem aby zobaczyć nazwę stacji.

Kliknij aby zobaczyć obserwacje i prognozy pogody.

Aby zmienić mapę: kliknij na zielony przycisk z czarnym krzyżykiem, aby powiększyć; na zielony przycisk z myślnikiem, aby pomniejszyć; na zielone strzałki, aby przejść do map sąsiednich.


METAR-TAF: